Terminal Aerodrome Forecast
Issued by NWS Springfield, MO

Home | Current Version | Previous Version | Text Only | Print | Product List | Glossary On
Versions: 1 2 3 4 5 6 7 8 9 10 11 12 13 14 15 16 17 18 19
988
FTUS43 KSGF 251216 AAA
TAFSGF
TAF AMD
KSGF 251216Z 2512/2612 34012KT 5SM -TSRA BR BKN019CB OVC050
     FM251400 35007KT P6SM VCTS BKN050CB
      TEMPO 2514/2515 4SM -TSRA OVC018CB
     FM251900 03007KT P6SM BKN200
     FM260600 09005KT P6SM BKN200=

USA.gov is the U.S. government's official web portal to all federal, state and local government web resources and services.